createdAt,value
2022-10-09T00:01:06.877Z,99934.50
2022-10-09T00:03:56.485Z,99934.47
2022-10-09T00:06:42.661Z,99914.44
2022-10-09T00:09:29.280Z,99897.00
2022-10-09T00:12:15.605Z,99918.94
2022-10-09T00:15:02.090Z,99873.66
2022-10-09T00:17:48.847Z,99914.72
2022-10-09T00:20:37.269Z,99894.88
2022-10-09T00:23:23.693Z,99896.09
2022-10-09T00:26:09.752Z,99888.38
2022-10-09T00:28:56.568Z,99915.91
2022-10-09T00:31:42.843Z,99868.84
2022-10-09T00:34:29.343Z,99889.88
2022-10-09T00:37:15.377Z,99911.09
2022-10-09T00:40:01.830Z,99916.63
2022-10-09T00:42:56.010Z,99902.97
2022-10-09T00:45:47.441Z,99888.22
2022-10-09T00:48:33.886Z,99916.47
2022-10-09T00:51:20.074Z,99895.69
2022-10-09T00:54:09.883Z,99901.97
2022-10-09T00:56:56.494Z,99907.09
2022-10-09T00:59:42.808Z,99868.94
2022-10-09T01:02:29.022Z,99890.69
2022-10-09T01:05:15.562Z,99885.94
2022-10-09T01:08:13.990Z,99903.38
2022-10-09T01:11:14.305Z,99903.47
2022-10-09T01:14:04.998Z,99905.19
2022-10-09T01:17:02.198Z,99897.59
2022-10-09T01:20:26.311Z,99895.88
2022-10-09T01:23:44.038Z,99891.09
2022-10-09T01:26:48.387Z,99885.16
2022-10-09T01:29:40.647Z,99877.19
2022-10-09T01:32:32.294Z,99834.56
2022-10-09T01:35:20.541Z,99874.84
2022-10-09T01:38:07.470Z,99887.38
2022-10-09T01:40:53.971Z,99870.97
2022-10-09T01:43:41.109Z,99868.09
2022-10-09T01:46:33.570Z,99860.19
2022-10-09T01:49:41.974Z,99872.50
2022-10-09T01:52:55.771Z,99871.47
2022-10-09T01:55:41.734Z,99861.91
2022-10-09T01:58:51.775Z,99856.38
2022-10-09T02:01:39.531Z,99843.13
2022-10-09T02:04:27.429Z,99835.00
2022-10-09T02:07:14.183Z,99851.41
2022-10-09T02:10:02.750Z,99830.66
2022-10-09T02:12:58.744Z,99833.84
2022-10-09T02:16:04.286Z,99841.28
2022-10-09T02:18:56.145Z,99839.91
2022-10-09T02:21:48.040Z,99824.66
2022-10-09T02:24:39.537Z,99842.97
2022-10-09T02:27:26.670Z,99849.81
2022-10-09T02:30:14.990Z,99802.47
2022-10-09T02:33:01.439Z,99838.84
2022-10-09T02:35:48.357Z,99808.28
2022-10-09T02:38:34.870Z,99821.22
2022-10-09T02:41:22.277Z,99787.25
2022-10-09T02:44:08.769Z,99815.31
2022-10-09T02:46:54.890Z,99827.53
2022-10-09T02:49:41.242Z,99820.47
2022-10-09T02:52:27.366Z,99796.22
2022-10-09T02:55:13.920Z,99797.09
2022-10-09T02:58:00.246Z,99775.44
2022-10-09T03:00:51.810Z,99805.84
2022-10-09T03:03:38.017Z,99778.28
2022-10-09T03:06:27.108Z,99812.84
2022-10-09T03:09:13.586Z,99809.34
2022-10-09T03:11:59.667Z,99785.84
2022-10-09T03:14:46.026Z,99815.78
2022-10-09T03:17:32.533Z,99814.88
2022-10-09T03:20:19.198Z,99790.25
2022-10-09T03:23:05.955Z,99820.69
2022-10-09T03:25:59.622Z,99817.53
2022-10-09T03:28:48.762Z,99796.34
2022-10-09T03:31:52.828Z,99814.25
2022-10-09T03:34:39.678Z,99821.41
2022-10-09T03:37:25.905Z,99806.84
2022-10-09T03:40:12.012Z,99795.31
2022-10-09T03:42:58.550Z,99808.13
2022-10-09T03:45:45.015Z,99793.13
2022-10-09T03:48:31.263Z,99798.06
2022-10-09T03:51:17.394Z,99813.88
2022-10-09T03:54:04.077Z,99822.31
2022-10-09T03:56:50.261Z,99798.44
2022-10-09T03:59:36.738Z,99808.41
2022-10-09T04:02:23.175Z,99820.72
2022-10-09T04:05:09.438Z,99829.28
2022-10-09T04:07:55.822Z,99831.13
2022-10-09T04:10:42.157Z,99824.94
2022-10-09T04:13:29.117Z,99791.22
2022-10-09T04:16:15.310Z,99820.75
2022-10-09T04:19:01.794Z,99832.13
2022-10-09T04:21:47.996Z,99812.41
2022-10-09T04:24:34.573Z,99814.25
2022-10-09T04:27:20.904Z,99787.19
2022-10-09T04:30:07.958Z,99791.63
2022-10-09T04:32:54.044Z,99770.00
2022-10-09T04:35:44.330Z,99784.50
2022-10-09T04:38:31.733Z,99813.41
2022-10-09T04:41:18.248Z,99808.81
2022-10-09T04:44:04.764Z,99815.09
2022-10-09T04:46:51.778Z,99815.41
2022-10-09T04:49:37.934Z,99778.50
2022-10-09T04:52:24.037Z,99800.97
2022-10-09T04:55:10.470Z,99815.09
2022-10-09T04:57:56.757Z,99815.16
2022-10-09T05:00:44.951Z,99812.50
2022-10-09T05:03:31.934Z,99790.19
2022-10-09T05:06:19.689Z,99799.50
2022-10-09T05:09:06.071Z,99812.94
2022-10-09T05:11:52.723Z,99783.81
2022-10-09T05:14:38.878Z,99789.09
2022-10-09T05:17:25.366Z,99799.75
2022-10-09T05:20:11.797Z,99796.91
2022-10-09T05:22:57.906Z,99811.03
2022-10-09T05:25:44.386Z,99807.53
2022-10-09T05:28:30.782Z,99822.94
2022-10-09T05:31:23.620Z,99812.50
2022-10-09T05:34:10.389Z,99810.19
2022-10-09T05:36:56.970Z,99807.19
2022-10-09T05:39:43.247Z,99811.72
2022-10-09T05:42:29.382Z,99793.56
2022-10-09T05:45:15.713Z,99784.84
2022-10-09T05:48:01.806Z,99764.78
2022-10-09T05:50:48.555Z,99813.59
2022-10-09T05:53:35.477Z,99793.59
2022-10-09T05:56:27.936Z,99820.25
2022-10-09T05:59:19.628Z,99803.78
2022-10-09T06:02:06.400Z,99813.41
2022-10-09T06:04:52.801Z,99791.97
2022-10-09T06:07:39.249Z,99814.56
2022-10-09T06:10:30.213Z,99817.34
2022-10-09T06:13:18.548Z,99792.13
2022-10-09T06:16:04.970Z,99792.94
2022-10-09T06:18:53.045Z,99819.09
2022-10-09T06:21:39.233Z,99824.50
2022-10-09T06:24:29.106Z,99800.97
2022-10-09T06:27:15.952Z,99822.03
2022-10-09T06:30:02.173Z,99818.44
2022-10-09T06:32:49.676Z,99788.78
2022-10-09T06:35:36.038Z,99804.63
2022-10-09T06:38:22.439Z,99793.56
2022-10-09T06:41:12.227Z,99818.81
2022-10-09T06:44:01.607Z,99816.94
2022-10-09T06:46:49.521Z,99831.19
2022-10-09T06:49:35.883Z,99800.56
2022-10-09T06:52:22.301Z,99818.31
2022-10-09T06:55:08.902Z,99812.44
2022-10-09T06:57:55.100Z,99810.88
2022-10-09T07:00:41.748Z,99840.97
2022-10-09T07:03:28.096Z,99827.31
2022-10-09T07:06:19.873Z,99799.41
2022-10-09T07:09:08.382Z,99832.75
2022-10-09T07:11:54.444Z,99829.41
2022-10-09T07:14:40.863Z,99830.25
2022-10-09T07:17:36.849Z,99837.81
2022-10-09T07:20:23.224Z,99838.09
2022-10-09T07:23:09.841Z,99829.19
2022-10-09T07:25:56.340Z,99842.53
2022-10-09T07:28:43.482Z,99823.72
2022-10-09T07:31:29.668Z,99837.97
2022-10-09T07:34:16.282Z,99838.63
2022-10-09T07:37:02.399Z,99762.59
2022-10-09T07:39:48.883Z,99814.13
2022-10-09T07:42:35.427Z,99828.94
2022-10-09T07:45:21.890Z,99810.19
2022-10-09T07:48:07.988Z,99824.94
2022-10-09T07:50:55.522Z,99834.78
2022-10-09T07:53:42.178Z,99832.31
2022-10-09T07:56:35.014Z,99835.09
2022-10-09T07:59:21.592Z,99784.03
2022-10-09T08:02:08.937Z,99799.50
2022-10-09T08:04:55.518Z,99820.44
2022-10-09T08:07:41.939Z,99822.28
2022-10-09T08:10:32.078Z,99822.53
2022-10-09T08:13:18.459Z,99801.06
2022-10-09T08:16:05.837Z,99814.16
2022-10-09T08:18:57.447Z,99801.19
2022-10-09T08:21:43.702Z,99821.31
2022-10-09T08:24:30.075Z,99804.22
2022-10-09T08:27:16.609Z,99802.72
2022-10-09T08:30:02.828Z,99772.06
2022-10-09T08:32:49.320Z,99779.41
2022-10-09T08:35:35.944Z,99785.78
2022-10-09T08:38:45.658Z,99782.41
2022-10-09T08:41:42.230Z,99804.75
2022-10-09T08:44:41.337Z,99803.97
2022-10-09T08:47:36.682Z,99804.97
2022-10-09T08:50:29.131Z,99774.88
2022-10-09T08:53:40.621Z,99803.47
2022-10-09T08:56:28.830Z,99803.41
2022-10-09T08:59:15.106Z,99796.63
2022-10-09T09:02:27.772Z,99789.25
2022-10-09T09:05:50.659Z,99785.19
2022-10-09T09:09:01.138Z,99781.97
2022-10-09T09:12:23.177Z,99780.69
2022-10-09T09:15:16.591Z,99758.06
2022-10-09T09:18:29.035Z,99773.81
2022-10-09T09:21:40.529Z,99770.41
2022-10-09T09:24:44.722Z,99763.75
2022-10-09T09:27:36.696Z,99738.81
2022-10-09T09:30:29.171Z,99754.56
2022-10-09T09:33:23.071Z,99728.66
2022-10-09T09:36:16.254Z,99721.75
2022-10-09T09:42:15.834Z,99728.03
2022-10-09T09:45:05.637Z,99743.81
2022-10-09T09:48:06.110Z,99714.38
2022-10-09T09:51:10.361Z,99695.31
2022-10-09T09:54:04.081Z,99730.91
2022-10-09T09:57:12.037Z,99728.44
2022-10-09T10:00:20.882Z,99701.59
2022-10-09T10:03:17.822Z,99692.97
2022-10-09T10:06:04.701Z,99670.41
2022-10-09T10:08:59.337Z,99701.63
2022-10-09T10:11:49.255Z,99697.31
2022-10-09T10:14:35.661Z,99694.75
2022-10-09T10:17:35.460Z,99682.63
2022-10-09T10:20:21.809Z,99686.94
2022-10-09T10:23:33.119Z,99687.75
2022-10-09T10:26:19.504Z,99683.41
2022-10-09T10:29:15.194Z,99649.66
2022-10-09T10:32:26.153Z,99674.66
2022-10-09T10:35:20.855Z,99641.75
2022-10-09T10:38:38.659Z,99650.31
2022-10-09T10:41:34.667Z,99629.56
2022-10-09T10:44:45.990Z,99648.56
2022-10-09T10:47:35.934Z,99645.03
2022-10-09T10:50:24.842Z,99642.25
2022-10-09T10:53:35.906Z,99625.59
2022-10-09T10:56:28.335Z,99624.66
2022-10-09T10:59:29.409Z,99637.63
2022-10-09T11:02:44.172Z,99625.28
2022-10-09T11:05:39.959Z,99628.75
2022-10-09T11:08:51.232Z,99621.81
2022-10-09T11:11:47.853Z,99608.66
2022-10-09T11:14:57.321Z,99611.16
2022-10-09T11:17:55.823Z,99605.75
2022-10-09T11:21:00.867Z,99612.56
2022-10-09T11:23:58.703Z,99594.34
2022-10-09T11:26:54.247Z,99593.31
2022-10-09T11:29:46.690Z,99572.59
2022-10-09T11:32:38.617Z,99579.31
2022-10-09T11:35:30.990Z,99550.53
2022-10-09T11:38:42.349Z,99574.69
2022-10-09T11:41:30.382Z,99565.03
2022-10-09T11:44:31.986Z,99560.66
2022-10-09T11:47:31.062Z,99544.03
2022-10-09T11:50:42.467Z,99533.44
2022-10-09T11:53:31.822Z,99546.34
2022-10-09T11:56:26.930Z,99520.41
2022-10-09T11:59:22.290Z,99538.41
2022-10-09T12:02:21.059Z,99529.59
2022-10-09T12:05:44.426Z,99524.25
2022-10-09T12:08:30.716Z,99512.75
2022-10-09T12:11:19.254Z,99507.16
2022-10-09T12:14:08.219Z,99507.88
2022-10-09T12:16:54.954Z,99504.13
2022-10-09T12:19:42.145Z,99478.94
2022-10-09T12:22:49.306Z,99472.63
2022-10-09T12:25:45.186Z,99488.88
2022-10-09T12:28:38.304Z,99463.63
2022-10-09T12:31:33.147Z,99466.06
2022-10-09T12:34:25.257Z,99448.63
2022-10-09T12:37:20.659Z,99425.19
2022-10-09T12:40:16.549Z,99466.22
2022-10-09T12:43:07.927Z,99444.63
2022-10-09T12:45:54.687Z,99448.63
2022-10-09T12:48:43.494Z,99433.19
2022-10-09T12:51:32.222Z,99449.31
2022-10-09T12:54:18.875Z,99422.66
2022-10-09T12:57:05.406Z,99441.28
2022-10-09T12:59:52.322Z,99437.59
2022-10-09T13:02:40.085Z,99437.28
2022-10-09T13:05:37.696Z,99435.69
2022-10-09T13:08:34.138Z,99407.19
2022-10-09T13:11:28.041Z,99416.38
2022-10-09T13:14:34.699Z,99420.59
2022-10-09T13:20:31.242Z,99417.25
2022-10-09T13:23:35.014Z,99416.06
2022-10-09T13:26:27.283Z,99404.03
2022-10-09T13:29:14.661Z,99383.00
2022-10-09T13:32:02.869Z,99392.25
2022-10-09T13:34:49.245Z,99365.00
2022-10-09T13:37:35.375Z,99392.88
2022-10-09T13:40:22.227Z,99368.69
2022-10-09T13:43:14.189Z,99395.38
2022-10-09T13:46:00.426Z,99374.09
2022-10-09T13:48:46.593Z,99391.66
2022-10-09T13:51:33.054Z,99384.00
2022-10-09T13:54:19.290Z,99359.97
2022-10-09T13:57:05.503Z,99366.34
2022-10-09T13:59:51.650Z,99371.59
2022-10-09T14:02:38.699Z,99336.03
2022-10-09T14:05:26.763Z,99366.28
2022-10-09T14:08:13.294Z,99358.84
2022-10-09T14:11:01.052Z,99361.59
2022-10-09T14:13:47.263Z,99347.69
2022-10-09T14:16:33.554Z,99340.09
2022-10-09T14:19:19.973Z,99331.44
2022-10-09T14:22:05.969Z,99308.50
2022-10-09T14:24:52.369Z,99307.59
2022-10-09T14:27:41.485Z,99320.31
2022-10-09T14:30:30.259Z,99293.63
2022-10-09T14:33:16.487Z,99314.34
2022-10-09T14:36:12.774Z,99316.78
2022-10-09T14:39:03.515Z,99319.47
2022-10-09T14:41:50.282Z,99284.19
2022-10-09T14:44:36.794Z,99277.16
2022-10-09T14:47:23.100Z,99304.91
2022-10-09T14:50:09.882Z,99283.56
2022-10-09T14:52:56.218Z,99275.84
2022-10-09T14:55:42.366Z,99311.22
2022-10-09T14:58:31.104Z,99305.94
2022-10-09T15:01:19.123Z,99278.22
2022-10-09T15:04:06.001Z,99273.09
2022-10-09T15:06:52.726Z,99297.59
2022-10-09T15:09:39.091Z,99265.00
2022-10-09T15:12:25.287Z,99271.97
2022-10-09T15:15:11.391Z,99272.13
2022-10-09T15:17:57.711Z,99261.75
2022-10-09T15:20:45.403Z,99254.81
2022-10-09T15:23:31.767Z,99277.34
2022-10-09T15:26:18.768Z,99263.59
2022-10-09T15:29:07.434Z,99265.94
2022-10-09T15:31:53.653Z,99264.31
2022-10-09T15:34:41.137Z,99257.41
2022-10-09T15:37:27.583Z,99261.00
2022-10-09T15:40:14.406Z,99235.19
2022-10-09T15:43:00.925Z,99253.34
2022-10-09T15:45:47.786Z,99244.81
2022-10-09T15:48:33.872Z,99237.25
2022-10-09T15:51:20.654Z,99239.00
2022-10-09T15:54:07.399Z,99257.25
2022-10-09T15:56:54.568Z,99247.09
2022-10-09T15:59:42.363Z,99217.88
2022-10-09T16:02:28.692Z,99232.56
2022-10-09T16:05:15.117Z,99231.75
2022-10-09T16:08:01.566Z,99227.53
2022-10-09T16:10:49.536Z,99238.91
2022-10-09T16:13:41.152Z,99233.13
2022-10-09T16:16:27.949Z,99243.75
2022-10-09T16:19:14.060Z,99236.06
2022-10-09T16:22:00.185Z,99233.59
2022-10-09T16:24:46.570Z,99244.97
2022-10-09T16:27:33.010Z,99207.88
2022-10-09T16:30:19.426Z,99241.69
2022-10-09T16:33:10.291Z,99234.91
2022-10-09T16:36:12.490Z,99214.47
2022-10-09T16:38:59.386Z,99232.63
2022-10-09T16:41:45.866Z,99228.50
2022-10-09T16:44:32.402Z,99195.94
2022-10-09T16:47:18.666Z,99225.41
2022-10-09T16:50:05.297Z,99233.34
2022-10-09T16:52:51.478Z,99215.38
2022-10-09T16:55:38.024Z,99242.25
2022-10-09T16:58:24.257Z,99234.59
2022-10-09T17:01:11.794Z,99250.31
2022-10-09T17:03:59.661Z,99245.16
2022-10-09T17:06:46.480Z,99240.97
2022-10-09T17:09:34.142Z,99236.78
2022-10-09T17:12:20.573Z,99229.91
2022-10-09T17:15:07.292Z,99256.75
2022-10-09T17:17:53.734Z,99236.94
2022-10-09T17:20:40.063Z,99260.28
2022-10-09T17:23:26.450Z,99254.28
2022-10-09T17:26:18.433Z,99230.19
2022-10-09T17:29:05.547Z,99233.69
2022-10-09T17:31:51.834Z,99237.13
2022-10-09T17:34:42.995Z,99235.38
2022-10-09T17:37:29.574Z,99249.19
2022-10-09T17:40:15.976Z,99228.47
2022-10-09T17:43:02.347Z,99249.22
2022-10-09T17:45:49.578Z,99228.50
2022-10-09T17:48:36.250Z,99251.81
2022-10-09T17:51:33.907Z,99225.06
2022-10-09T17:54:20.214Z,99255.28
2022-10-09T17:57:11.743Z,99226.81
2022-10-09T17:59:57.866Z,99232.88
2022-10-09T18:02:44.266Z,99250.13
2022-10-09T18:05:31.095Z,99247.56
2022-10-09T18:08:19.064Z,99243.28
2022-10-09T18:11:08.794Z,99242.41
2022-10-09T18:13:55.895Z,99245.91
2022-10-09T18:16:42.583Z,99176.06
2022-10-09T18:19:28.808Z,99249.38
2022-10-09T18:22:15.017Z,99180.38
2022-10-09T18:25:01.569Z,99218.34
2022-10-09T18:27:48.212Z,99231.31
2022-10-09T18:30:35.017Z,99239.06
2022-10-09T18:33:21.287Z,99198.53
2022-10-09T18:36:19.720Z,99232.19
2022-10-09T18:39:15.003Z,99233.91
2022-10-09T18:42:04.349Z,99221.84
2022-10-09T18:44:51.177Z,99207.19
2022-10-09T18:47:38.282Z,99214.09
2022-10-09T18:50:24.973Z,99220.13
2022-10-09T18:53:11.870Z,99234.78
2022-10-09T18:55:58.459Z,99218.38
2022-10-09T18:58:45.436Z,99231.34
2022-10-09T19:01:31.752Z,99234.78
2022-10-09T19:04:19.249Z,99220.13
2022-10-09T19:07:05.539Z,99207.19
2022-10-09T19:09:56.962Z,99218.41
2022-10-09T19:12:43.732Z,99205.47
2022-10-09T19:15:30.232Z,99208.06
2022-10-09T19:18:16.518Z,99225.31
2022-10-09T19:21:03.556Z,99230.50
2022-10-09T19:23:51.574Z,99229.63
2022-10-09T19:26:38.018Z,99222.72
2022-10-09T19:29:24.298Z,99226.19
2022-10-09T19:32:10.618Z,99206.31
2022-10-09T19:34:56.931Z,99237.38
2022-10-09T19:37:42.935Z,99211.50
2022-10-09T19:40:29.432Z,99231.38
2022-10-09T19:43:17.746Z,99183.91
2022-10-09T19:46:07.317Z,99226.16
2022-10-09T19:48:53.686Z,99220.13
2022-10-09T19:51:40.342Z,99218.41
2022-10-09T19:54:26.738Z,99208.88
2022-10-09T19:57:12.921Z,99214.06
2022-10-09T19:59:58.996Z,99195.94
2022-10-09T20:02:45.278Z,99214.06
2022-10-09T20:05:32.447Z,99211.44
2022-10-09T20:08:19.028Z,99204.53
2022-10-09T20:11:06.103Z,99200.22
2022-10-09T20:13:56.044Z,99215.75
2022-10-09T20:16:42.882Z,99202.78
2022-10-09T20:19:31.420Z,99197.59
2022-10-09T20:22:17.896Z,99187.28
2022-10-09T20:25:04.839Z,99211.41
2022-10-09T20:27:51.017Z,99209.63
2022-10-09T20:30:37.320Z,99206.16
2022-10-09T20:33:23.620Z,99209.63
2022-10-09T20:36:22.389Z,99175.19
2022-10-09T20:39:12.031Z,99192.41
2022-10-09T20:41:58.275Z,99195.84
2022-10-09T20:44:44.790Z,99182.03
2022-10-09T20:47:31.137Z,99195.81
2022-10-09T20:50:17.582Z,99169.03
2022-10-09T20:53:04.826Z,99184.59
2022-10-09T20:55:51.173Z,99202.72
2022-10-09T20:58:39.089Z,99190.59
2022-10-09T21:01:28.512Z,99200.97
2022-10-09T21:04:15.167Z,99199.25
2022-10-09T21:07:01.449Z,99202.66
2022-10-09T21:09:47.804Z,99202.69
2022-10-09T21:12:33.986Z,99184.56
2022-10-09T21:15:20.164Z,99196.63
2022-10-09T21:18:06.852Z,99163.88
2022-10-09T21:20:53.433Z,99146.59
2022-10-09T21:23:40.241Z,99192.34
2022-10-09T21:26:27.582Z,99163.91
2022-10-09T21:29:14.127Z,99182.06
2022-10-09T21:32:00.519Z,99163.09
2022-10-09T21:34:47.055Z,99161.38
2022-10-09T21:37:37.300Z,99173.50
2022-10-09T21:40:23.893Z,99178.66
2022-10-09T21:43:13.254Z,99174.38
2022-10-09T21:45:59.797Z,99190.78
2022-10-09T21:48:45.935Z,99183.88
2022-10-09T21:51:32.454Z,99163.19
2022-10-09T21:54:19.045Z,99194.25
2022-10-09T21:57:05.528Z,99172.63
2022-10-09T21:59:51.972Z,99164.84
2022-10-09T22:02:38.305Z,99171.72
2022-10-09T22:05:24.486Z,99170.00
2022-10-09T22:08:10.544Z,99181.19
2022-10-09T22:10:57.005Z,99194.09
2022-10-09T22:13:43.551Z,99195.81
2022-10-09T22:16:29.732Z,99143.13
2022-10-09T22:19:16.000Z,99171.59
2022-10-09T22:22:02.442Z,99172.41
2022-10-09T22:24:49.157Z,99189.66
2022-10-09T22:27:36.093Z,99183.59
2022-10-09T22:30:22.420Z,99185.34
2022-10-09T22:33:08.950Z,99184.47
2022-10-09T22:36:04.819Z,99164.59
2022-10-09T22:38:56.160Z,99143.00
2022-10-09T22:41:42.626Z,99176.66
2022-10-09T22:44:28.873Z,99167.97
2022-10-09T22:47:15.284Z,99176.56
2022-10-09T22:50:01.835Z,99161.84
2022-10-09T22:52:48.238Z,99154.03
2022-10-09T22:55:34.957Z,99170.47
2022-10-09T22:58:21.381Z,99160.97
2022-10-09T23:01:11.566Z,99173.00
2022-10-09T23:03:59.645Z,99149.66
2022-10-09T23:06:49.573Z,99170.34
2022-10-09T23:09:35.634Z,99163.41
2022-10-09T23:12:22.194Z,99134.91
2022-10-09T23:15:08.726Z,99154.72
2022-10-09T23:17:55.047Z,99156.44
2022-10-09T23:20:41.528Z,99155.44
2022-10-09T23:23:29.565Z,99154.56
2022-10-09T23:26:21.175Z,99113.88
2022-10-09T23:29:12.619Z,99162.28
2022-10-09T23:31:58.762Z,99155.38
2022-10-09T23:34:45.151Z,99157.13
2022-10-09T23:37:31.558Z,99133.91
2022-10-09T23:40:17.950Z,99139.88
2022-10-09T23:43:04.061Z,99150.22
2022-10-09T23:45:51.206Z,99165.78
2022-10-09T23:48:37.422Z,99123.47
2022-10-09T23:51:25.522Z,99164.06
2022-10-09T23:54:12.148Z,99139.84
2022-10-09T23:56:58.470Z,99151.03
2022-10-09T23:59:44.951Z,99131.09
